createdAt,value
2022-11-18T00:02:24.323Z,6.88
2022-11-18T00:04:51.327Z,7.68
2022-11-18T00:07:18.446Z,7.28
2022-11-18T00:09:45.542Z,8.80
2022-11-18T00:12:32.790Z,8.27
2022-11-18T00:14:59.833Z,9.48
2022-11-18T00:17:26.810Z,9.00
2022-11-18T00:19:53.772Z,7.97
2022-11-18T00:22:24.328Z,8.75
2022-11-18T00:24:53.946Z,8.02
2022-11-18T00:27:22.218Z,8.23
2022-11-18T00:29:49.485Z,7.70
2022-11-18T00:32:16.422Z,7.35
2022-11-18T00:34:43.665Z,7.93
2022-11-18T00:37:10.769Z,8.05
2022-11-18T00:39:37.813Z,8.02
2022-11-18T00:42:23.526Z,7.70
2022-11-18T00:47:18.902Z,7.80
2022-11-18T00:49:45.890Z,7.93
2022-11-18T00:52:12.809Z,7.68
2022-11-18T00:54:39.982Z,8.23
2022-11-18T00:57:06.881Z,8.30
2022-11-18T00:59:34.093Z,7.55
2022-11-18T01:02:02.380Z,7.75
2022-11-18T01:04:29.507Z,7.40
2022-11-18T01:06:56.622Z,8.30
2022-11-18T01:09:23.649Z,7.90
2022-11-18T01:12:09.094Z,8.57
2022-11-18T01:14:36.114Z,8.85
2022-11-18T01:17:04.397Z,8.10
2022-11-18T01:19:31.658Z,7.85
2022-11-18T01:22:03.112Z,7.22
2022-11-18T01:24:30.986Z,7.00
2022-11-18T01:26:58.648Z,7.57
2022-11-18T01:29:25.889Z,7.15
2022-11-18T01:32:17.273Z,7.32
2022-11-18T01:34:41.216Z,7.03
2022-11-18T01:37:08.815Z,6.90
2022-11-18T01:39:35.916Z,6.20
2022-11-18T01:42:02.862Z,6.30
2022-11-18T01:45:02.497Z,6.28
2022-11-18T01:47:33.430Z,6.97
2022-11-18T01:50:02.385Z,5.90
2022-11-18T01:52:30.090Z,6.65
2022-11-18T01:55:01.669Z,6.07
2022-11-18T01:57:30.764Z,6.53
2022-11-18T02:00:02.178Z,6.82
2022-11-18T02:02:35.033Z,6.80
2022-11-18T02:05:05.810Z,7.43
2022-11-18T02:07:34.464Z,7.25
2022-11-18T02:10:04.300Z,7.47
2022-11-18T02:12:31.558Z,7.35
2022-11-18T02:14:59.413Z,6.72
2022-11-18T02:17:36.050Z,6.95
2022-11-18T02:20:30.493Z,7.15
2022-11-18T02:23:43.299Z,7.38
2022-11-18T02:26:34.610Z,7.72
2022-11-18T02:29:06.881Z,7.10
2022-11-18T02:31:37.861Z,7.97
2022-11-18T02:34:13.826Z,6.78
2022-11-18T02:36:46.883Z,6.88
2022-11-18T02:39:19.948Z,7.80
2022-11-18T02:41:49.409Z,7.57
2022-11-18T02:44:20.936Z,8.60
2022-11-18T02:46:51.661Z,8.60
2022-11-18T02:49:23.075Z,8.20
2022-11-18T02:51:51.731Z,7.63
2022-11-18T02:54:20.635Z,7.60
2022-11-18T02:56:50.606Z,8.15
2022-11-18T02:59:19.996Z,7.30
2022-11-18T03:01:48.016Z,8.02
2022-11-18T03:04:16.173Z,8.35
2022-11-18T03:06:47.591Z,7.53
2022-11-18T03:09:18.536Z,7.10
2022-11-18T03:11:54.226Z,7.20
2022-11-18T03:14:30.004Z,6.45
2022-11-18T03:17:00.577Z,7.13
2022-11-18T03:19:45.436Z,7.35
2022-11-18T03:22:17.941Z,7.10
2022-11-18T03:24:52.344Z,7.18
2022-11-18T03:27:26.275Z,7.35
2022-11-18T03:29:59.961Z,7.38
2022-11-18T03:32:29.513Z,7.25
2022-11-18T03:35:01.256Z,7.35
2022-11-18T03:37:30.725Z,7.22
2022-11-18T03:40:02.030Z,6.63
2022-11-18T03:42:32.051Z,7.22
2022-11-18T03:45:05.257Z,7.20
2022-11-18T03:47:36.011Z,8.20
2022-11-18T03:50:09.608Z,6.47
2022-11-18T03:52:37.226Z,6.50
2022-11-18T03:55:10.171Z,6.28
2022-11-18T03:57:45.817Z,5.63
2022-11-18T04:00:20.413Z,4.97
2022-11-18T04:02:50.010Z,6.22
2022-11-18T04:05:19.416Z,6.57
2022-11-18T04:07:55.199Z,6.93
2022-11-18T04:10:26.631Z,6.82
2022-11-18T04:13:05.950Z,8.48
2022-11-18T04:15:37.843Z,7.07
2022-11-18T04:18:04.869Z,5.70
2022-11-18T04:20:33.791Z,5.28
2022-11-18T04:23:01.278Z,5.63
2022-11-18T04:25:28.259Z,5.88
2022-11-18T04:27:55.459Z,7.25
2022-11-18T04:30:22.586Z,9.10
2022-11-18T04:32:50.972Z,9.55
2022-11-18T04:35:17.978Z,8.50
2022-11-18T04:37:44.986Z,8.60
2022-11-18T04:40:12.709Z,8.07
2022-11-18T04:42:39.944Z,8.23
2022-11-18T04:45:08.287Z,8.68
2022-11-18T04:47:35.528Z,9.38
2022-11-18T04:50:04.291Z,9.68
2022-11-18T04:52:31.378Z,10.70
2022-11-18T04:54:58.301Z,11.65
2022-11-18T04:57:25.970Z,12.25
2022-11-18T04:59:52.897Z,11.35
2022-11-18T05:02:19.938Z,15.05
2022-11-18T05:04:47.137Z,15.38
2022-11-18T05:07:16.082Z,15.60
2022-11-18T05:09:43.244Z,13.32
2022-11-18T05:12:31.230Z,18.52
2022-11-18T05:14:58.461Z,16.48
2022-11-18T05:17:25.395Z,10.98
2022-11-18T05:19:52.335Z,10.32
2022-11-18T05:22:20.765Z,10.82
2022-11-18T05:24:47.718Z,9.75
2022-11-18T05:27:15.510Z,9.55
2022-11-18T05:29:42.522Z,9.75
2022-11-18T05:32:09.457Z,8.85
2022-11-18T05:34:36.702Z,8.40
2022-11-18T05:37:03.834Z,8.18
2022-11-18T05:39:34.660Z,7.97
2022-11-18T05:42:20.106Z,7.47
2022-11-18T05:44:47.213Z,7.53
2022-11-18T05:47:14.797Z,7.03
2022-11-18T05:49:41.754Z,6.63
2022-11-18T05:52:08.763Z,7.15
2022-11-18T05:54:39.047Z,6.70
2022-11-18T05:57:06.064Z,6.88
2022-11-18T05:59:33.098Z,6.88
2022-11-18T06:02:02.771Z,10.23
2022-11-18T06:04:33.516Z,6.15
2022-11-18T06:07:06.733Z,6.78
2022-11-18T06:09:40.079Z,6.20
2022-11-18T06:12:08.232Z,6.13
2022-11-18T06:14:37.876Z,6.45
2022-11-18T06:17:10.916Z,6.93
2022-11-18T06:19:38.251Z,6.28
2022-11-18T06:22:05.878Z,6.97
2022-11-18T06:24:33.082Z,6.32
2022-11-18T06:27:02.110Z,5.82
2022-11-18T06:29:31.085Z,5.05
2022-11-18T06:31:58.315Z,5.30
2022-11-18T06:34:25.221Z,4.53
2022-11-18T06:36:52.314Z,4.85
2022-11-18T06:39:20.051Z,3.88
2022-11-18T06:41:47.586Z,3.97
2022-11-18T06:44:16.902Z,4.18
2022-11-18T06:46:56.092Z,4.10
2022-11-18T06:49:23.857Z,4.15
2022-11-18T06:51:51.047Z,4.22
2022-11-18T06:54:18.366Z,3.78
2022-11-18T06:56:45.949Z,3.88
2022-11-18T06:59:13.041Z,3.67
2022-11-18T07:01:42.336Z,3.90
2022-11-18T07:04:09.631Z,3.90
2022-11-18T07:06:37.228Z,3.88
2022-11-18T07:09:07.091Z,3.80
2022-11-18T07:11:34.706Z,3.70
2022-11-18T07:14:02.244Z,3.45
2022-11-18T07:16:29.506Z,3.25
2022-11-18T07:18:57.881Z,3.30
2022-11-18T07:21:27.125Z,3.20
2022-11-18T07:23:54.467Z,3.28
2022-11-18T07:26:22.094Z,3.22
2022-11-18T07:28:49.499Z,3.03
2022-11-18T07:31:18.772Z,3.80
2022-11-18T07:33:47.154Z,3.70
2022-11-18T07:36:18.061Z,3.80
2022-11-18T07:38:45.743Z,3.65
2022-11-18T07:41:14.794Z,3.97
2022-11-18T07:43:42.137Z,3.75
2022-11-18T07:46:11.500Z,3.58
2022-11-18T07:48:38.545Z,4.00
2022-11-18T07:51:05.706Z,3.97
2022-11-18T07:53:35.219Z,3.70
2022-11-18T07:56:02.820Z,3.90
2022-11-18T07:58:29.764Z,3.60
2022-11-18T08:00:56.812Z,3.90
2022-11-18T08:03:26.409Z,3.80
2022-11-18T08:05:53.874Z,3.92
2022-11-18T08:08:20.955Z,3.88
2022-11-18T08:10:49.317Z,4.20
2022-11-18T08:13:16.612Z,3.90
2022-11-18T08:15:44.079Z,4.53
2022-11-18T08:18:13.717Z,4.22
2022-11-18T08:20:41.021Z,4.40
2022-11-18T08:23:08.515Z,4.22
2022-11-18T08:25:35.582Z,4.43
2022-11-18T08:28:04.071Z,4.47
2022-11-18T08:30:31.100Z,5.03
2022-11-18T08:32:58.220Z,4.10
2022-11-18T08:35:26.760Z,4.50
2022-11-18T08:37:53.709Z,3.70
2022-11-18T08:40:21.006Z,3.40
2022-11-18T08:42:48.135Z,3.63
2022-11-18T08:45:16.449Z,3.67
2022-11-18T08:47:43.682Z,3.30
2022-11-18T08:50:11.926Z,3.15
2022-11-18T08:52:38.971Z,3.92
2022-11-18T08:55:06.560Z,3.65
2022-11-18T08:57:33.479Z,3.42
2022-11-18T09:00:00.917Z,3.75
2022-11-18T09:02:29.245Z,3.67
2022-11-18T09:04:56.282Z,3.80
2022-11-18T09:07:23.249Z,3.53
2022-11-18T09:09:50.313Z,3.53
2022-11-18T09:12:17.767Z,3.20
2022-11-18T09:17:33.442Z,4.10
2022-11-18T09:20:00.496Z,2.90
2022-11-18T09:22:27.662Z,3.00
2022-11-18T09:24:54.649Z,3.63
2022-11-18T09:27:21.588Z,3.63
2022-11-18T09:29:48.945Z,3.58
2022-11-18T09:32:15.961Z,3.63
2022-11-18T09:34:44.421Z,3.50
2022-11-18T09:37:11.789Z,4.15
2022-11-18T09:39:38.909Z,3.67
2022-11-18T09:42:21.222Z,4.15
2022-11-18T09:44:58.362Z,4.15
2022-11-18T09:47:28.217Z,3.80
2022-11-18T09:49:58.996Z,3.58
2022-11-18T09:52:35.578Z,4.00
2022-11-18T09:55:05.157Z,3.80
2022-11-18T09:57:38.197Z,3.10
2022-11-18T10:00:13.694Z,2.95
2022-11-18T10:02:52.350Z,3.08
2022-11-18T10:05:23.076Z,3.53
2022-11-18T10:08:06.067Z,3.10
2022-11-18T10:10:41.902Z,2.88
2022-11-18T10:13:18.080Z,2.70
2022-11-18T10:15:53.883Z,2.78
2022-11-18T10:18:57.879Z,2.88
2022-11-18T10:21:24.621Z,2.47
2022-11-18T10:23:55.722Z,2.85
2022-11-18T10:26:37.710Z,3.13
2022-11-18T10:29:10.100Z,2.97
2022-11-18T10:31:38.555Z,3.05
2022-11-18T10:34:05.692Z,3.45
2022-11-18T10:36:34.376Z,3.30
2022-11-18T10:39:07.498Z,2.95
2022-11-18T10:41:40.425Z,2.83
2022-11-18T10:44:28.865Z,2.03
2022-11-18T10:46:56.091Z,2.13
2022-11-18T10:49:23.592Z,1.90
2022-11-18T10:52:09.350Z,1.60
2022-11-18T10:54:36.902Z,1.60
2022-11-18T10:57:07.075Z,1.75
2022-11-18T10:59:38.981Z,1.70
2022-11-18T11:02:17.014Z,1.70
2022-11-18T11:04:45.630Z,1.63
2022-11-18T11:07:25.560Z,1.67
2022-11-18T11:10:22.789Z,1.30
2022-11-18T11:12:55.024Z,1.77
2022-11-18T11:15:27.322Z,1.65
2022-11-18T11:18:16.614Z,1.58
2022-11-18T11:20:44.091Z,1.50
2022-11-18T11:23:17.769Z,1.70
2022-11-18T11:28:46.968Z,2.08
2022-11-18T11:31:20.574Z,1.70
2022-11-18T11:33:55.571Z,1.90
2022-11-18T11:36:37.605Z,1.60
2022-11-18T11:39:24.458Z,1.60
2022-11-18T11:42:02.450Z,1.83
2022-11-18T11:44:50.312Z,1.77
2022-11-18T11:47:50.496Z,1.67
2022-11-18T11:50:27.072Z,1.90
2022-11-18T11:53:16.336Z,1.50
2022-11-18T11:55:59.391Z,1.58
2022-11-18T11:58:48.109Z,1.52
2022-11-18T12:01:21.373Z,1.80
2022-11-18T12:03:53.116Z,1.98
2022-11-18T12:06:20.329Z,2.05
2022-11-18T12:08:55.988Z,2.30
2022-11-18T12:11:34.731Z,5.60
2022-11-18T12:14:06.515Z,3.75
2022-11-18T12:16:43.575Z,4.05
2022-11-18T12:19:13.680Z,3.28
2022-11-18T12:22:03.901Z,2.42
2022-11-18T12:24:36.870Z,4.78
2022-11-18T12:27:11.617Z,3.08
2022-11-18T12:32:27.106Z,3.92
2022-11-18T12:34:59.345Z,2.87
2022-11-18T12:37:56.943Z,5.22
2022-11-18T12:40:42.506Z,4.57
2022-11-18T12:44:04.301Z,5.88
2022-11-18T12:46:52.380Z,3.22
2022-11-18T12:50:11.721Z,2.30
2022-11-18T12:52:49.980Z,2.20
2022-11-18T12:55:34.245Z,2.67
2022-11-18T12:58:01.448Z,2.40
2022-11-18T13:00:52.834Z,2.22
2022-11-18T13:03:25.084Z,2.70
2022-11-18T13:06:04.006Z,3.17
2022-11-18T13:08:31.130Z,3.35
2022-11-18T13:11:26.672Z,3.60
2022-11-18T13:17:00.374Z,6.15
2022-11-18T13:19:27.369Z,3.40
2022-11-18T13:22:14.343Z,3.03
2022-11-18T13:24:46.664Z,2.75
2022-11-18T13:27:28.464Z,2.50
2022-11-18T13:30:03.521Z,2.80
2022-11-18T13:32:31.961Z,2.53
2022-11-18T13:35:10.678Z,2.08
2022-11-18T13:37:48.805Z,2.15
2022-11-18T13:40:19.786Z,2.20
2022-11-18T13:42:47.031Z,3.10
2022-11-18T13:45:14.438Z,2.55
2022-11-18T13:47:47.748Z,3.00
2022-11-18T13:50:22.456Z,2.67
2022-11-18T13:52:57.910Z,1.70
2022-11-18T13:55:27.152Z,1.70
2022-11-18T13:58:02.439Z,1.98
2022-11-18T14:00:32.762Z,2.10
2022-11-18T14:03:04.075Z,2.40
2022-11-18T14:05:31.563Z,2.88
2022-11-18T14:08:05.343Z,3.00
2022-11-18T14:10:40.216Z,3.05
2022-11-18T14:15:44.966Z,2.10
2022-11-18T14:18:21.076Z,2.40
2022-11-18T14:20:53.176Z,2.30
2022-11-18T14:23:25.488Z,2.38
2022-11-18T14:25:52.719Z,2.63
2022-11-18T14:28:24.833Z,2.40
2022-11-18T14:31:23.428Z,2.35
2022-11-18T14:34:16.162Z,2.17
2022-11-18T14:36:43.733Z,1.92
2022-11-18T14:39:26.420Z,2.45
2022-11-18T14:41:54.742Z,2.00
2022-11-18T14:44:24.426Z,2.15
2022-11-18T14:46:53.621Z,2.15
2022-11-18T14:49:23.750Z,2.30
2022-11-18T14:51:51.763Z,2.30
2022-11-18T14:54:25.801Z,1.90
2022-11-18T14:56:57.266Z,2.40
2022-11-18T14:59:24.266Z,2.03
2022-11-18T15:01:55.071Z,2.63
2022-11-18T15:04:23.460Z,2.72
2022-11-18T15:06:50.617Z,2.70
2022-11-18T15:09:17.755Z,2.38
2022-11-18T15:11:44.990Z,2.00
2022-11-18T15:14:14.913Z,2.50
2022-11-18T15:16:42.308Z,3.17
2022-11-18T15:19:14.007Z,3.13
2022-11-18T15:21:43.382Z,2.50
2022-11-18T15:24:10.326Z,2.97
2022-11-18T15:26:40.721Z,3.15
2022-11-18T15:29:16.206Z,3.08
2022-11-18T15:31:43.116Z,3.30
2022-11-18T15:34:10.017Z,3.08
2022-11-18T15:36:37.078Z,3.03
2022-11-18T15:39:05.495Z,3.00
2022-11-18T15:41:32.543Z,3.13
2022-11-18T15:44:00.757Z,3.83
2022-11-18T15:46:30.020Z,3.58
2022-11-18T15:48:58.718Z,3.60
2022-11-18T15:51:27.233Z,4.90
2022-11-18T15:53:55.001Z,6.40
2022-11-18T15:56:28.994Z,6.72
2022-11-18T15:59:00.160Z,5.88
2022-11-18T16:01:28.902Z,5.10
2022-11-18T16:03:56.461Z,4.25
2022-11-18T16:06:24.044Z,4.32
2022-11-18T16:08:57.611Z,4.38
2022-11-18T16:11:49.908Z,4.40
2022-11-18T16:14:19.838Z,4.28
2022-11-18T16:16:48.812Z,4.03
2022-11-18T16:19:20.296Z,3.95
2022-11-18T16:21:49.205Z,4.18
2022-11-18T16:24:19.005Z,4.00
2022-11-18T16:26:47.705Z,3.83
2022-11-18T16:29:18.475Z,4.22
2022-11-18T16:31:50.901Z,4.18
2022-11-18T16:34:19.781Z,4.05
2022-11-18T16:36:48.684Z,4.10
2022-11-18T16:39:17.274Z,4.43
2022-11-18T16:41:45.372Z,4.90
2022-11-18T16:44:15.411Z,6.55
2022-11-18T16:46:46.357Z,18.52
2022-11-18T16:49:15.318Z,24.48
2022-11-18T16:51:43.474Z,25.40
2022-11-18T16:54:19.466Z,26.27
2022-11-18T16:56:47.752Z,25.60
2022-11-18T16:59:17.976Z,26.17
2022-11-18T17:01:45.594Z,25.75
2022-11-18T17:04:12.845Z,24.08
2022-11-18T17:06:40.697Z,23.75
2022-11-18T17:09:12.356Z,21.65
2022-11-18T17:11:39.282Z,19.65
2022-11-18T17:14:06.248Z,16.88
2022-11-18T17:16:34.577Z,10.05
2022-11-18T17:19:10.117Z,6.93
2022-11-18T17:21:38.779Z,6.97
2022-11-18T17:24:06.844Z,5.13
2022-11-18T17:26:33.851Z,4.15
2022-11-18T17:29:01.051Z,4.00
2022-11-18T17:31:28.033Z,4.68
2022-11-18T17:33:57.060Z,5.25
2022-11-18T17:36:26.110Z,4.80
2022-11-18T17:38:55.565Z,5.55
2022-11-18T17:41:42.589Z,7.50
2022-11-18T17:44:11.934Z,8.32
2022-11-18T17:46:39.277Z,10.90
2022-11-18T17:49:13.256Z,8.82
2022-11-18T17:51:40.483Z,6.80
2022-11-18T17:54:07.876Z,7.35
2022-11-18T17:56:35.726Z,6.85
2022-11-18T17:59:02.755Z,6.38
2022-11-18T18:01:30.157Z,5.22
2022-11-18T18:03:57.461Z,5.32
2022-11-18T18:06:26.872Z,5.75
2022-11-18T18:08:59.237Z,5.90
2022-11-18T18:11:27.609Z,4.90
2022-11-18T18:14:13.465Z,5.75
2022-11-18T18:16:43.579Z,6.72
2022-11-18T18:19:12.653Z,5.63
2022-11-18T18:21:41.166Z,5.63
2022-11-18T18:24:09.243Z,5.82
2022-11-18T18:26:36.300Z,6.25
2022-11-18T18:29:04.566Z,5.95
2022-11-18T18:31:34.340Z,5.90
2022-11-18T18:34:01.831Z,6.28
2022-11-18T18:36:28.750Z,5.80
2022-11-18T18:38:58.523Z,6.20
2022-11-18T18:41:25.518Z,5.70
2022-11-18T18:43:52.788Z,6.40
2022-11-18T18:46:33.609Z,6.20
2022-11-18T18:49:03.584Z,6.60
2022-11-18T18:51:32.496Z,6.60
2022-11-18T18:54:00.889Z,7.50
2022-11-18T18:56:28.352Z,7.95
2022-11-18T18:58:56.830Z,7.03
2022-11-18T19:01:24.635Z,7.75
2022-11-18T19:03:55.403Z,7.40
2022-11-18T19:09:14.103Z,7.32
2022-11-18T19:11:59.897Z,7.10
2022-11-18T19:14:27.793Z,7.50
2022-11-18T19:16:55.557Z,7.57
2022-11-18T19:19:44.070Z,7.82
2022-11-18T19:22:13.437Z,7.85
2022-11-18T19:24:49.622Z,7.93
2022-11-18T19:27:17.675Z,8.55
2022-11-18T19:29:44.813Z,9.20
2022-11-18T19:32:11.878Z,8.93
2022-11-18T19:34:39.112Z,8.55
2022-11-18T19:37:06.132Z,8.35
2022-11-18T19:39:33.056Z,8.23
2022-11-18T19:42:01.380Z,7.50
2022-11-18T19:44:28.377Z,7.13
2022-11-18T19:46:55.420Z,7.03
2022-11-18T19:49:22.909Z,7.50
2022-11-18T19:51:50.027Z,7.55
2022-11-18T19:54:17.033Z,6.95
2022-11-18T19:56:43.997Z,7.72
2022-11-18T19:59:12.963Z,7.13
2022-11-18T20:01:40.494Z,7.32
2022-11-18T20:04:07.629Z,6.97
2022-11-18T20:06:36.007Z,7.72
2022-11-18T20:09:04.065Z,7.85
2022-11-18T20:11:31.002Z,7.32
2022-11-18T20:13:57.967Z,7.13
2022-11-18T20:16:26.403Z,7.03
2022-11-18T20:18:54.630Z,7.03
2022-11-18T20:21:22.760Z,7.13
2022-11-18T20:23:51.699Z,7.05
2022-11-18T20:26:21.625Z,7.00
2022-11-18T20:28:53.007Z,6.90
2022-11-18T20:31:24.472Z,6.95
2022-11-18T20:33:54.256Z,7.00
2022-11-18T20:36:22.674Z,6.80
2022-11-18T20:38:50.656Z,6.82
2022-11-18T20:41:18.127Z,7.07
2022-11-18T20:43:45.256Z,8.00
2022-11-18T20:46:17.254Z,7.38
2022-11-18T20:48:47.248Z,6.20
2022-11-18T20:51:17.494Z,6.25
2022-11-18T20:53:45.169Z,6.18
2022-11-18T20:56:13.861Z,6.07
2022-11-18T20:58:41.297Z,6.57
2022-11-18T21:01:09.807Z,6.75
2022-11-18T21:03:37.592Z,6.30
2022-11-18T21:06:08.418Z,6.82
2022-11-18T21:08:41.720Z,6.60
2022-11-18T21:11:10.375Z,6.75
2022-11-18T21:13:56.740Z,6.70
2022-11-18T21:16:24.539Z,7.20
2022-11-18T21:18:51.602Z,6.63
2022-11-18T21:21:37.409Z,7.05
2022-11-18T21:24:06.497Z,7.05
2022-11-18T21:26:35.025Z,7.32
2022-11-18T21:29:05.364Z,8.60
2022-11-18T21:31:33.362Z,8.77
2022-11-18T21:34:00.698Z,8.65
2022-11-18T21:36:28.529Z,9.55
2022-11-18T21:38:57.127Z,9.13
2022-11-18T21:41:25.522Z,8.10
2022-11-18T21:44:07.951Z,9.00
2022-11-18T21:46:35.714Z,9.60
2022-11-18T21:49:02.856Z,9.43
2022-11-18T21:51:31.549Z,9.20
2022-11-18T21:53:58.572Z,9.05
2022-11-18T21:56:30.632Z,8.70
2022-11-18T21:58:58.863Z,8.40
2022-11-18T22:01:27.752Z,8.10
2022-11-18T22:03:56.071Z,8.60
2022-11-18T22:06:24.581Z,8.43
2022-11-18T22:08:52.177Z,7.60
2022-11-18T22:11:20.601Z,7.10
2022-11-18T22:13:49.820Z,6.82
2022-11-18T22:16:18.739Z,6.55
2022-11-18T22:18:51.617Z,6.93
2022-11-18T22:21:22.267Z,6.10
2022-11-18T22:23:49.258Z,6.72
2022-11-18T22:26:17.938Z,6.40
2022-11-18T22:28:45.736Z,6.65
2022-11-18T22:31:15.640Z,6.78
2022-11-18T22:33:43.088Z,5.53
2022-11-18T22:36:12.957Z,5.80
2022-11-18T22:38:40.304Z,7.13
2022-11-18T22:41:09.744Z,7.18
2022-11-18T22:43:36.667Z,6.95
2022-11-18T22:46:05.561Z,7.53
2022-11-18T22:48:34.558Z,8.05
2022-11-18T22:51:03.575Z,8.13
2022-11-18T22:53:31.132Z,7.63
2022-11-18T22:56:02.944Z,7.63
2022-11-18T22:58:30.304Z,7.93
2022-11-18T23:01:00.442Z,7.60
2022-11-18T23:03:27.695Z,6.88
2022-11-18T23:05:56.437Z,7.03
2022-11-18T23:08:24.352Z,7.43
2022-11-18T23:10:51.665Z,6.30
2022-11-18T23:13:37.521Z,6.88
2022-11-18T23:16:05.016Z,6.38
2022-11-18T23:18:31.954Z,6.40
2022-11-18T23:21:01.327Z,5.82
2022-11-18T23:23:28.634Z,6.32
2022-11-18T23:25:55.673Z,5.80
2022-11-18T23:28:22.826Z,6.45
2022-11-18T23:30:49.772Z,8.15
2022-11-18T23:33:16.801Z,8.18
2022-11-18T23:35:43.765Z,8.30
2022-11-18T23:38:12.149Z,7.15
2022-11-18T23:40:39.266Z,5.90
2022-11-18T23:43:06.280Z,5.05
2022-11-18T23:45:33.196Z,5.85
2022-11-18T23:48:00.153Z,6.45
2022-11-18T23:50:27.150Z,8.48
2022-11-18T23:52:54.254Z,7.03
2022-11-18T23:55:22.705Z,6.72
2022-11-18T23:57:49.817Z,6.20
